deformed-offering

Nearby METAR Reports

 

KSJC - San Jose, California, USA
Distance from station: NE 9mi, 14km
Updated: Thu, 23-May-2024 4:53pm PDT
Few Clouds
Few Clouds
 Wind from NNW
Wind: NNW 14 mph, 22 km/h
Temperature: 73°F, 23°C
Dew Point: 48°F, 9°C
Humidity: 41%
Barometer: 29.88 inHg, 1011.9 hPa
Clouds: Few Clouds
Visibility: 10 miles, 16 km
Cloud details: Few Clouds 10000 ft
2024/05/23 23:53 KSJC 232353Z 34012KT 10SM FEW100 23/09 A2988 RMK AO2 SLP117 T02330089 10250 20206 56009
KPAO - Palo Alto, California, USA
Distance from station: NNW 14mi, 23km
Updated: Thu, 23-May-2024 4:47pm PDT
Clear
Clear
 Wind from NW
Wind: NW 20 mph, 31 km/h
Temperature: 72°F, 22°C
Dew Point: 45°F, 7°C
Humidity: 38%
Barometer: 29.88 inHg, 1011.9 hPa
Clouds: Clear
Visibility: 10 miles, 16 km
2024/05/23 23:47 KPAO 232347Z 32017KT 10SM SKC 22/07 A2988
 
KSQL - San Carlos Airpo, California, USA
Distance from station: NW 21mi, 34km
Updated: Thu, 23-May-2024 4:50pm PDT
Clear
Clear
 Wind from W
Wind: W 17 mph, 28 km/h
Temperature: 66°F, 19°C
Dew Point: 43°F, 6°C
Humidity: 43%
Barometer: 29.90 inHg, 1012.5 hPa
Clouds: Clear
Visibility: 10 miles, 16 km
2024/05/23 23:50 KSQL 232350Z 27015KT 10SM CLR 19/06 A2990
KWVI - Watsonville, California, USA
Distance from station: SSE 27mi, 44km
Updated: Thu, 23-May-2024 4:53pm PDT
Partly cloudy
Partly cloudy
 Wind from ESE
Wind: ESE 8 mph, 13 km/h
Temperature: 63°F, 17°C
Dew Point: 52°F, 11°C
Humidity: 68%
Barometer: 29.92 inHg, 1013.2 hPa
Clouds: Partly cloudy
Visibility: 9 miles, 14 km
Cloud details: Partly cloudy 1100 ft
2024/05/23 23:53 KWVI 232353Z AUTO 12007KT 9SM SCT011 17/11 A2992 RMK AO2 SLP133 T01670106 10183 20167 56009
 
KHWD - Hayward, California, USA
Distance from station: N 28mi, 44km
Updated: Thu, 23-May-2024 4:54pm PDT
Clear
Clear
 Wind from W
Wind: W 13 mph, 20 km/h
Temperature: 64°F, 18°C
Dew Point: 48°F, 9°C
Humidity: 56%
Barometer: 29.90 inHg, 1012.5 hPa
Clouds: Clear
Visibility: 10 miles, 16 km
2024/05/23 23:54 KHWD 232354Z 27011KT 10SM CLR 18/09 A2990 RMK AO2 SLP135 T01830089 10211 20178 $
KSFO - San Francisco, California, USA
Distance from station: NW 30mi, 49km
Updated: Thu, 23-May-2024 4:56pm PDT
Few Clouds
Few Clouds
 Wind from W
Wind: W 21 mph, 33 km/h, Gust: 30 mph, 48 km/h
Temperature: 61°F, 16°C
Dew Point: 45°F, 7°C
Humidity: 55%
Barometer: 29.91 inHg, 1012.9 hPa
Clouds: Few Clouds
Visibility: 10 miles, 16 km
Cloud details: Few Clouds 20000 ft
2024/05/23 23:56 KSFO 232356Z 28018G26KT 10SM FEW200 16/07 A2991 RMK AO2 PK WND 27031/2313 SLP128 T01610067 10189 20161 56009 $
 
KHAF - Half Moon Bay, California, USA
Distance from station: WNW 31mi, 50km
Updated: Thu, 23-May-2024 4:55pm PDT
Haze, Clear
Haze, Clear
 Wind from NW
Wind: NW 13 mph, 20 km/h
Temperature: 55°F, 13°C
Dew Point: 48°F, 9°C
Humidity: 77%
Barometer: 29.96 inHg, 1014.6 hPa
Summary: Haze
Clouds: Clear
Visibility: 4 miles, 6 km
2024/05/23 23:55 KHAF 232355Z AUTO 32011KT 4SM HZ CLR 13/09 A2996 RMK AO2
KLVK - Livermore, California, USA
Distance from station: NNE 31mi, 51km
Updated: Thu, 23-May-2024 4:53pm PDT
Clear
Clear
 Wind from WNW
Wind: WNW 12 mph, 19 km/h
Temperature: 77°F, 25°C
Dew Point: 37°F, 3°C
Humidity: 24%
Barometer: 29.86 inHg, 1011.2 hPa
Clouds: Clear
Visibility: 10 miles, 16 km
2024/05/23 23:53 KLVK 232353Z 29010KT 10SM CLR 25/03 A2986 RMK AO2 SLP109 T02500033 10261 20200 56010
 
KOAK - Oakland, California, USA
Distance from station: NNW 33mi, 53km
Updated: Thu, 23-May-2024 4:53pm PDT
Partly cloudy
Partly cloudy
 Wind from W
Wind: W 14 mph, 22 km/h
Temperature: 63°F, 17°C
Dew Point: 46°F, 8°C
Humidity: 56%
Barometer: 29.91 inHg, 1012.9 hPa
Clouds: Partly cloudy
Visibility: 10 miles, 16 km
Cloud details: Partly cloudy 20000 ft
2024/05/23 23:53 KOAK 232353Z 27012KT 10SM SCT200 17/08 A2991 RMK AO2 SLP127 T01720078 10189 20167 56012
KCVH - Hollister Muni, California, USA
Distance from station: SE 42mi, 68km
Updated: Thu, 23-May-2024 4:55pm PDT
Clear
Clear
 Wind from WSW
Wind: WSW 21 mph, 33 km/h
Temperature: 68°F, 20°C
Dew Point: 43°F, 6°C
Humidity: 40%
Barometer: 29.90 inHg, 1012.5 hPa
Clouds: Clear
Visibility: 9 miles, 14 km
2024/05/23 23:55 KCVH 232355Z AUTO 25018KT 9SM CLR 20/06 A2990 RMK A01
 
KSNS - Salinas, California, USA
Distance from station: SSE 48mi, 77km
Updated: Thu, 23-May-2024 4:53pm PDT
Clear
Clear
 Wind from NW
Wind: NW 10 mph, 17 km/h
Temperature: 63°F, 17°C
Dew Point: 46°F, 8°C
Humidity: 56%
Barometer: 29.94 inHg, 1013.9 hPa
Clouds: Clear
Visibility: 9 miles, 14 km
2024/05/23 23:53 KSNS 232353Z 31009KT 9SM CLR 17/08 A2994 RMK AO2 SLP147 T01670078 10183 20161 56004
KMRY - Monterey, California, USA
Distance from station: SSE 49mi, 78km
Updated: Thu, 23-May-2024 4:54pm PDT
Clear
Clear
 Wind from W
Wind: W 9 mph, 15 km/h
Temperature: 59°F, 15°C
Dew Point: 46°F, 8°C
Humidity: 63%
Barometer: 29.96 inHg, 1014.6 hPa
Clouds: Clear
Visibility: 10 miles, 16 km
2024/05/23 23:54 KMRY 232354Z 27008KT 10SM CLR 15/08 A2996 RMK AO2 SLP158 T01500078 10161 20139 56006
 
KCCR - Concord, California, USA
Distance from station: N 50mi, 81km
Updated: Thu, 23-May-2024 4:53pm PDT
Clear
Clear
 Wind from WSW
Wind: WSW 14 mph, 22 km/h
Temperature: 81°F, 27°C
Dew Point: 36°F, 2°C
Humidity: 20%
Barometer: 29.84 inHg, 1010.5 hPa
Clouds: Clear
Visibility: 10 miles, 16 km
2024/05/23 23:53 KCCR 232353Z 25012KT 10SM CLR 27/02 A2984 RMK AO2 SLP093 T02720017 10278 20217 56011
deformed-offering